createdAt,value
2023-04-06T00:01:20.596Z,85220.94
2023-04-06T00:03:47.717Z,85187.38
2023-04-06T00:06:17.079Z,85220.94
2023-04-06T00:08:45.712Z,85225.72
2023-04-06T00:11:12.761Z,85188.06
2023-04-06T00:13:39.712Z,85198.34
2023-04-06T00:16:07.243Z,85188.78
2023-04-06T00:18:34.320Z,85207.25
2023-04-06T00:21:01.435Z,85214.09
2023-04-06T00:23:28.411Z,85218.19
2023-04-06T00:25:55.402Z,85200.34
2023-04-06T00:28:26.524Z,85208.59
2023-04-06T00:30:56.433Z,85201.75
2023-04-06T00:33:24.361Z,85197.63
2023-04-06T00:35:52.025Z,85141.47
2023-04-06T00:38:19.418Z,85201.72
2023-04-06T00:40:46.764Z,85161.34
2023-04-06T00:43:14.511Z,85156.56
2023-04-06T00:45:43.198Z,85183.94
2023-04-06T00:48:10.510Z,85146.28
2023-04-06T00:50:37.502Z,85190.78
2023-04-06T00:53:04.601Z,85131.22
2023-04-06T00:55:31.565Z,85168.88
2023-04-06T00:58:02.251Z,85153.81
2023-04-06T01:00:36.415Z,85177.09
2023-04-06T01:03:04.700Z,85147.66
2023-04-06T01:05:41.761Z,85144.19
2023-04-06T01:08:16.950Z,85172.28
2023-04-06T01:10:44.107Z,85174.34
2023-04-06T01:13:24.176Z,85140.75
2023-04-06T01:15:57.941Z,85113.44
2023-04-06T01:18:43.336Z,85162.00
2023-04-06T01:21:17.792Z,85152.44
2023-04-06T01:24:01.735Z,85151.06
2023-04-06T01:26:37.137Z,85133.25
2023-04-06T01:29:07.769Z,85127.81
2023-04-06T01:31:34.899Z,85149.03
2023-04-06T01:34:01.915Z,85120.97
2023-04-06T01:36:29.043Z,85096.34
2023-04-06T01:39:05.821Z,85131.91
2023-04-06T01:41:36.752Z,85103.16
2023-04-06T01:44:04.327Z,85105.91
2023-04-06T01:46:32.595Z,85099.03
2023-04-06T01:49:01.482Z,85115.47
2023-04-06T01:51:36.644Z,85096.31
2023-04-06T01:54:06.729Z,85137.41
2023-04-06T01:56:56.830Z,84977.97
2023-04-06T01:59:59.394Z,85088.09
2023-04-06T02:02:40.632Z,85130.53
2023-04-06T02:05:14.171Z,85151.00
2023-04-06T02:07:41.744Z,85133.25
2023-04-06T02:10:14.432Z,85120.97
2023-04-06T02:12:41.565Z,85083.31
2023-04-06T02:15:14.370Z,85118.19
2023-04-06T02:17:42.386Z,85127.78
2023-04-06T02:20:10.649Z,85127.09
2023-04-06T02:22:37.714Z,85135.28
2023-04-06T02:25:05.070Z,85135.97
2023-04-06T02:27:32.010Z,85134.59
2023-04-06T02:29:58.978Z,85133.91
2023-04-06T02:32:26.152Z,85055.19
2023-04-06T02:34:54.028Z,85122.94
2023-04-06T02:37:23.147Z,85062.03
2023-04-06T02:39:50.247Z,85120.16
2023-04-06T02:42:17.460Z,85134.56
2023-04-06T02:44:48.141Z,85131.84
2023-04-06T02:47:15.531Z,85098.28
2023-04-06T02:49:48.580Z,85089.38
2023-04-06T02:52:18.999Z,85096.25
2023-04-06T02:54:46.566Z,84943.00
2023-04-06T02:57:13.824Z,85119.50
2023-04-06T02:59:44.610Z,85067.50
2023-04-06T03:02:23.335Z,85074.34
2023-04-06T03:04:50.636Z,85108.56
2023-04-06T03:07:26.597Z,85091.47
2023-04-06T03:09:53.603Z,85093.53
2023-04-06T03:12:20.718Z,85036.72
2023-04-06T03:15:23.181Z,85137.28
2023-04-06T03:18:01.348Z,85088.03
2023-04-06T03:20:42.014Z,85135.25
2023-04-06T03:23:10.373Z,85121.56
2023-04-06T03:25:41.024Z,85114.69
2023-04-06T03:28:10.809Z,85068.13
2023-04-06T03:30:46.753Z,85133.13
2023-04-06T03:33:16.740Z,85129.00
2023-04-06T03:35:52.504Z,85118.16
2023-04-06T03:38:19.543Z,85101.66
2023-04-06T03:40:46.684Z,85070.88
2023-04-06T03:43:13.658Z,85120.81
2023-04-06T03:45:41.146Z,85035.28
2023-04-06T03:48:08.513Z,85123.56
2023-04-06T03:50:38.078Z,85120.84
2023-04-06T03:53:06.062Z,85085.25
2023-04-06T03:55:34.183Z,85096.16
2023-04-06T03:58:01.206Z,85129.06
2023-04-06T04:00:28.412Z,85071.56
2023-04-06T04:02:56.155Z,85112.59
2023-04-06T04:05:26.316Z,85098.94
2023-04-06T04:07:54.019Z,85121.47
2023-04-06T04:10:24.747Z,85059.22
2023-04-06T04:12:52.686Z,85107.84
2023-04-06T04:15:19.805Z,85129.06
2023-04-06T04:17:50.483Z,85096.22
2023-04-06T04:20:18.278Z,85087.97
2023-04-06T04:22:45.475Z,85103.72
2023-04-06T04:25:12.584Z,85080.44
2023-04-06T04:27:45.254Z,85129.72
2023-04-06T04:30:12.823Z,85110.53
2023-04-06T04:32:40.068Z,85097.56
2023-04-06T04:35:10.107Z,85127.66
2023-04-06T04:37:41.643Z,85122.22
2023-04-06T04:40:10.601Z,85115.38
2023-04-06T04:43:03.592Z,85120.16
2023-04-06T04:45:33.906Z,85129.06
2023-04-06T04:48:09.981Z,85092.06
2023-04-06T04:50:48.697Z,85123.53
2023-04-06T04:53:17.190Z,85128.31
2023-04-06T04:55:45.272Z,85125.63
2023-04-06T04:58:17.731Z,85124.31
2023-04-06T05:00:53.560Z,85127.69
2023-04-06T05:03:26.386Z,85118.13
2023-04-06T05:06:02.924Z,85114.03
2023-04-06T05:08:33.486Z,85112.63
2023-04-06T05:11:01.433Z,85127.63
2023-04-06T05:13:32.558Z,85122.84
2023-04-06T05:16:02.704Z,85116.72
2023-04-06T05:18:33.202Z,85122.22
2023-04-06T05:21:01.158Z,85048.34
2023-04-06T05:23:39.305Z,85108.56
2023-04-06T05:26:06.650Z,85116.81
2023-04-06T05:28:33.968Z,85096.31
2023-04-06T05:31:02.391Z,85035.44
2023-04-06T05:33:36.335Z,85108.69
2023-04-06T05:36:08.411Z,85099.81
2023-04-06T05:38:39.951Z,85103.94
2023-04-06T05:41:17.578Z,85108.72
2023-04-06T05:43:51.793Z,85103.28
2023-04-06T05:46:19.996Z,85065.00
2023-04-06T05:48:47.463Z,85034.22
2023-04-06T05:51:15.605Z,85105.34
2023-04-06T05:53:47.519Z,85032.84
2023-04-06T05:56:14.542Z,85108.06
2023-04-06T05:58:42.326Z,85068.41
2023-04-06T06:01:12.126Z,85024.00
2023-04-06T06:03:43.070Z,85098.47
2023-04-06T06:06:10.135Z,85100.53
2023-04-06T06:09:06.714Z,85047.19
2023-04-06T06:11:39.226Z,85072.47
2023-04-06T06:14:06.945Z,85097.03
2023-04-06T06:16:38.207Z,85089.53
2023-04-06T06:19:06.908Z,85092.91
2023-04-06T06:21:34.726Z,85077.88
2023-04-06T06:24:03.235Z,85063.53
2023-04-06T06:26:30.280Z,85086.69
2023-04-06T06:28:57.637Z,85057.25
2023-04-06T06:31:25.865Z,85031.97
2023-04-06T06:33:55.022Z,85070.19
2023-04-06T06:36:22.164Z,85055.13
2023-04-06T06:38:49.972Z,85091.97
2023-04-06T06:41:19.179Z,85066.72
2023-04-06T06:43:46.487Z,85101.47
2023-04-06T06:46:13.689Z,85079.63
2023-04-06T06:48:41.860Z,85106.88
2023-04-06T06:51:10.731Z,85102.69
2023-04-06T06:53:40.692Z,85104.69
2023-04-06T06:56:07.718Z,85102.63
2023-04-06T06:58:34.748Z,85111.47
2023-04-06T07:03:34.526Z,85107.91
2023-04-06T07:06:01.597Z,85106.53
2023-04-06T07:08:28.640Z,85111.91
2023-04-06T07:10:57.518Z,85083.88
2023-04-06T07:13:25.186Z,85087.97
2023-04-06T07:15:55.746Z,85094.13
2023-04-06T07:18:23.812Z,85091.94
2023-04-06T07:20:51.000Z,85121.31
2023-04-06T07:23:18.472Z,85115.75
2023-04-06T07:25:46.181Z,85114.94
2023-04-06T07:28:13.243Z,85118.31
2023-04-06T07:30:41.413Z,85101.41
2023-04-06T07:33:10.395Z,85108.81
2023-04-06T07:35:38.422Z,85089.69
2023-04-06T07:38:06.506Z,85118.22
2023-04-06T07:40:34.875Z,85122.28
2023-04-06T07:43:03.179Z,85088.03
2023-04-06T07:45:30.813Z,85111.13
2023-04-06T07:48:00.965Z,85099.56
2023-04-06T07:50:29.037Z,85102.88
2023-04-06T07:52:57.339Z,85112.97
2023-04-06T07:55:24.536Z,85123.06
2023-04-06T07:57:52.006Z,85085.44
2023-04-06T08:00:19.494Z,85086.47
2023-04-06T08:02:46.690Z,85107.38
2023-04-06T08:05:13.941Z,85114.75
2023-04-06T08:07:41.238Z,85111.88
2023-04-06T08:10:08.543Z,85113.13
2023-04-06T08:12:35.954Z,85099.38
2023-04-06T08:15:04.283Z,85102.00
2023-04-06T08:17:33.070Z,85048.09
2023-04-06T08:20:00.242Z,85109.25
2023-04-06T08:22:27.358Z,85064.25
2023-04-06T08:24:54.559Z,85040.41
2023-04-06T08:27:21.823Z,85095.47
2023-04-06T08:29:52.243Z,85092.44
2023-04-06T08:32:19.433Z,85075.97
2023-04-06T08:34:48.000Z,85104.53
2023-04-06T08:37:15.149Z,85071.69
2023-04-06T08:39:42.340Z,85040.97
2023-04-06T08:42:17.679Z,85105.56
2023-04-06T08:44:47.170Z,85099.28
2023-04-06T08:47:14.361Z,85097.84
2023-04-06T08:49:43.176Z,85096.28
2023-04-06T08:52:12.141Z,85105.03
2023-04-06T08:54:39.750Z,85060.53
2023-04-06T08:57:07.911Z,85108.06
2023-04-06T08:59:35.360Z,85101.16
2023-04-06T09:02:06.169Z,85042.47
2023-04-06T09:04:39.815Z,85058.47
2023-04-06T09:07:07.123Z,85075.47
2023-04-06T09:09:34.284Z,85085.66
2023-04-06T09:12:06.961Z,85022.06
2023-04-06T09:14:38.922Z,85008.13
2023-04-06T09:17:09.518Z,85090.41
2023-04-06T09:19:48.744Z,85065.75
2023-04-06T09:22:16.255Z,85095.78
2023-04-06T09:24:49.484Z,85029.69
2023-04-06T09:27:17.080Z,85066.41
2023-04-06T09:29:45.186Z,84981.38
2023-04-06T09:32:13.261Z,85083.28
2023-04-06T09:34:40.695Z,85086.75
2023-04-06T09:37:33.933Z,85052.09
2023-04-06T09:40:08.601Z,85034.00
2023-04-06T09:42:36.635Z,85078.78
2023-04-06T09:45:04.796Z,84993.09
2023-04-06T09:47:34.322Z,84983.34
2023-04-06T09:50:03.208Z,85068.84
2023-04-06T09:52:55.339Z,85079.22
2023-04-06T09:55:33.542Z,85039.50
2023-04-06T09:58:07.697Z,85076.78
2023-04-06T10:00:45.843Z,85088.81
2023-04-06T10:03:40.078Z,85036.53
2023-04-06T10:06:12.525Z,85063.75
2023-04-06T10:08:42.637Z,85085.69
2023-04-06T10:11:12.852Z,85084.34
2023-04-06T10:13:40.225Z,85089.63
2023-04-06T10:16:08.997Z,85080.78
2023-04-06T10:18:36.533Z,85019.44
2023-04-06T10:21:30.125Z,85054.59
2023-04-06T10:24:01.543Z,85015.31
2023-04-06T10:26:28.668Z,85081.81
2023-04-06T10:28:56.388Z,85040.94
2023-04-06T10:31:28.624Z,84964.88
2023-04-06T10:34:03.663Z,85071.75
2023-04-06T10:36:35.201Z,85068.53
2023-04-06T10:39:04.805Z,84983.41
2023-04-06T10:41:43.511Z,85068.53
2023-04-06T10:44:21.655Z,84981.66
2023-04-06T10:47:01.892Z,85066.19
2023-04-06T10:49:29.030Z,85069.97
2023-04-06T10:51:57.677Z,85071.41
2023-04-06T10:54:27.175Z,85046.97
2023-04-06T10:56:54.476Z,85019.13
2023-04-06T10:59:23.099Z,85064.66
2023-04-06T11:01:50.729Z,85057.13
2023-04-06T11:04:19.705Z,84956.44
2023-04-06T11:06:51.500Z,85059.66
2023-04-06T11:09:27.111Z,85069.06
2023-04-06T11:11:55.617Z,85061.38
2023-04-06T11:14:22.988Z,85029.28
2023-04-06T11:16:53.393Z,85011.72
2023-04-06T11:19:20.754Z,85059.28
2023-04-06T11:21:49.866Z,85052.75
2023-04-06T11:24:21.341Z,85056.06
2023-04-06T11:26:58.405Z,85053.84
2023-04-06T11:29:28.209Z,84991.25
2023-04-06T11:32:01.945Z,85055.28
2023-04-06T11:34:38.202Z,85052.41
2023-04-06T11:37:11.647Z,85018.50
2023-04-06T11:39:41.577Z,85052.44
2023-04-06T11:42:09.470Z,84924.69
2023-04-06T11:44:50.396Z,85036.41
2023-04-06T11:47:17.549Z,85027.63
2023-04-06T11:49:48.879Z,85006.38
2023-04-06T11:52:20.948Z,85038.41
2023-04-06T11:54:49.794Z,85049.94
2023-04-06T11:57:17.961Z,85050.59
2023-04-06T11:59:46.217Z,85048.50
2023-04-06T12:02:13.617Z,85042.69
2023-04-06T12:04:40.719Z,85015.34
2023-04-06T12:07:07.977Z,85041.91
2023-04-06T12:09:35.806Z,85038.63
2023-04-06T12:12:03.209Z,85005.34
2023-04-06T12:14:31.961Z,85005.75
2023-04-06T12:16:59.636Z,84930.09
2023-04-06T12:19:27.190Z,84992.25
2023-04-06T12:21:55.656Z,84995.44
2023-04-06T12:24:22.924Z,85028.09
2023-04-06T12:26:54.131Z,85028.63
2023-04-06T12:29:26.870Z,85039.47
2023-04-06T12:31:54.440Z,85038.69
2023-04-06T12:34:21.759Z,84993.06
2023-04-06T12:36:48.806Z,84996.59
2023-04-06T12:39:17.441Z,85026.19
2023-04-06T12:41:45.141Z,85029.53
2023-04-06T12:44:12.379Z,84914.44
2023-04-06T12:46:39.651Z,85035.44
2023-04-06T12:49:07.477Z,85018.78
2023-04-06T12:51:35.063Z,85002.28
2023-04-06T12:54:02.126Z,85022.09
2023-04-06T12:56:29.181Z,85018.63
2023-04-06T12:58:56.523Z,84981.03
2023-04-06T13:01:23.742Z,85006.53
2023-04-06T13:03:50.943Z,85035.03
2023-04-06T13:06:17.962Z,85030.88
2023-04-06T13:08:45.216Z,85014.66
2023-04-06T13:11:12.878Z,84987.28
2023-04-06T13:13:40.117Z,85032.88
2023-04-06T13:16:09.780Z,84987.38
2023-04-06T13:18:39.845Z,85035.03
2023-04-06T13:21:08.199Z,85004.53
2023-04-06T13:23:41.009Z,85011.75
2023-04-06T13:26:08.739Z,84946.47
2023-04-06T13:28:39.005Z,85013.00
2023-04-06T13:31:06.969Z,85024.34
2023-04-06T13:33:34.408Z,84970.69
2023-04-06T13:36:01.795Z,85038.91
2023-04-06T13:38:28.952Z,85038.22
2023-04-06T13:40:56.404Z,85012.56
2023-04-06T13:43:23.581Z,85025.50
2023-04-06T13:45:59.295Z,85036.28
2023-04-06T13:48:27.487Z,84989.25
2023-04-06T13:50:54.974Z,85025.22
2023-04-06T13:53:22.151Z,85003.44
2023-04-06T13:55:56.649Z,84987.09
2023-04-06T13:58:24.296Z,85032.16
2023-04-06T14:00:52.117Z,85020.47
2023-04-06T14:03:19.821Z,85041.69
2023-04-06T14:05:47.411Z,85034.78
2023-04-06T14:08:14.587Z,85009.09
2023-04-06T14:10:43.558Z,84958.16
2023-04-06T14:13:10.805Z,85038.91
2023-04-06T14:15:38.574Z,85033.44
2023-04-06T14:18:05.804Z,85029.41
2023-04-06T14:20:33.830Z,85034.91
2023-04-06T14:23:02.644Z,85040.41
2023-04-06T14:25:32.291Z,85030.78
2023-04-06T14:27:59.571Z,85041.81
2023-04-06T14:30:26.721Z,85035.03
2023-04-06T14:32:53.851Z,85036.31
2023-04-06T14:35:21.014Z,85007.09
2023-04-06T14:37:48.420Z,85019.31
2023-04-06T14:40:15.574Z,85053.59
2023-04-06T14:42:42.560Z,85040.56
2023-04-06T14:45:09.956Z,84987.41
2023-04-06T14:47:37.006Z,85012.75
2023-04-06T14:50:04.420Z,85018.91
2023-04-06T14:52:32.814Z,85053.16
2023-04-06T14:55:00.076Z,85014.94
2023-04-06T14:57:27.294Z,85055.16
2023-04-06T14:59:55.634Z,85018.47
2023-04-06T15:02:22.991Z,84998.13
2023-04-06T15:04:50.186Z,85030.22
2023-04-06T15:07:17.830Z,85058.91
2023-04-06T15:09:44.973Z,85059.69
2023-04-06T15:12:12.036Z,85054.88
2023-04-06T15:14:39.129Z,85008.63
2023-04-06T15:17:07.150Z,85052.25
2023-04-06T15:19:34.219Z,85061.09
2023-04-06T15:22:01.408Z,85042.13
2023-04-06T15:24:28.427Z,84980.22
2023-04-06T15:26:58.777Z,84995.19
2023-04-06T15:29:26.826Z,85062.56
2023-04-06T15:31:54.063Z,85074.31
2023-04-06T15:34:21.166Z,85074.41
2023-04-06T15:36:48.535Z,85037.56
2023-04-06T15:39:20.768Z,85017.97
2023-04-06T15:41:48.028Z,85007.72
2023-04-06T15:44:15.145Z,85055.47
2023-04-06T15:46:42.650Z,85073.13
2023-04-06T15:49:09.752Z,85030.91
2023-04-06T15:51:37.452Z,85017.41
2023-04-06T15:54:09.030Z,85071.84
2023-04-06T15:56:36.719Z,85063.06
2023-04-06T15:59:04.931Z,84980.72
2023-04-06T16:01:32.218Z,85065.91
2023-04-06T16:04:01.881Z,85019.69
2023-04-06T16:06:29.069Z,85058.56
2023-04-06T16:08:56.253Z,85058.69
2023-04-06T16:11:23.262Z,85081.06
2023-04-06T16:13:55.196Z,85024.66
2023-04-06T16:16:23.147Z,85081.13
2023-04-06T16:18:50.451Z,85057.41
2023-04-06T16:21:18.284Z,85092.88
2023-04-06T16:23:47.248Z,85062.88
2023-04-06T16:26:16.736Z,85083.38
2023-04-06T16:28:44.476Z,85090.97
2023-04-06T16:31:22.375Z,85114.28
2023-04-06T16:33:50.941Z,85087.66
2023-04-06T16:36:29.442Z,85102.75
2023-04-06T16:38:57.772Z,85102.75
2023-04-06T16:41:27.687Z,85102.78
2023-04-06T16:43:57.543Z,85104.28
2023-04-06T16:46:34.867Z,85107.00
2023-04-06T16:49:04.319Z,85062.78
2023-04-06T16:51:34.599Z,85029.34
2023-04-06T16:54:02.534Z,85113.28
2023-04-06T16:56:30.055Z,85071.75
2023-04-06T16:58:57.069Z,85119.47
2023-04-06T17:01:26.935Z,85112.66
2023-04-06T17:03:55.228Z,85122.25
2023-04-06T17:06:23.072Z,85059.50
2023-04-06T17:08:50.919Z,85092.22
2023-04-06T17:11:21.778Z,85114.03
2023-04-06T17:13:52.470Z,85129.13
2023-04-06T17:16:21.172Z,85098.53
2023-04-06T17:18:48.383Z,85137.47
2023-04-06T17:21:17.212Z,85096.56
2023-04-06T17:23:48.662Z,85097.97
2023-04-06T17:26:16.053Z,85102.03
2023-04-06T17:28:43.169Z,85099.34
2023-04-06T17:31:12.436Z,85144.38
2023-04-06T17:33:40.967Z,85098.03
2023-04-06T17:36:11.110Z,85149.19
2023-04-06T17:38:43.462Z,85092.59
2023-04-06T17:41:12.157Z,85149.94
2023-04-06T17:43:39.316Z,85115.19
2023-04-06T17:46:06.604Z,85149.34
2023-04-06T17:48:34.303Z,85109.09
2023-04-06T17:51:01.565Z,85156.88
2023-04-06T17:53:32.634Z,85150.81
2023-04-06T17:56:04.108Z,85152.22
2023-04-06T17:58:31.323Z,85170.00
2023-04-06T18:00:58.744Z,85174.88
2023-04-06T18:03:26.274Z,85165.31
2023-04-06T18:05:53.339Z,85180.38
2023-04-06T18:08:21.859Z,85124.38
2023-04-06T18:10:49.374Z,85170.91
2023-04-06T18:13:16.471Z,85176.34
2023-04-06T18:15:43.558Z,85188.72
2023-04-06T18:18:10.867Z,85151.22
2023-04-06T18:20:41.813Z,85205.84
2023-04-06T18:23:08.923Z,85184.06
2023-04-06T18:25:42.090Z,85195.69
2023-04-06T18:28:09.855Z,85195.13
2023-04-06T18:30:36.952Z,85201.31
2023-04-06T18:33:04.421Z,85216.34
2023-04-06T18:35:31.680Z,85225.28
2023-04-06T18:37:58.765Z,85219.19
2023-04-06T18:40:39.259Z,85223.38
2023-04-06T18:43:08.808Z,85167.31
2023-04-06T18:45:38.521Z,85237.19
2023-04-06T18:48:06.266Z,85227.56
2023-04-06T18:50:33.426Z,85128.50
2023-04-06T18:53:00.908Z,85231.72
2023-04-06T18:55:28.394Z,85192.13
2023-04-06T18:57:55.671Z,85159.31
2023-04-06T19:00:22.913Z,85199.75
2023-04-06T19:02:50.183Z,85189.47
2023-04-06T19:05:17.532Z,85227.78
2023-04-06T19:07:49.582Z,85213.44
2023-04-06T19:10:16.780Z,85227.81
2023-04-06T19:12:43.963Z,85203.84
2023-04-06T19:15:11.685Z,85223.69
2023-04-06T19:17:39.064Z,85201.09
2023-04-06T19:20:06.901Z,85195.63
2023-04-06T19:22:37.591Z,85231.19
2023-04-06T19:25:05.754Z,85190.16
2023-04-06T19:27:32.813Z,85236.66
2023-04-06T19:30:00.554Z,85224.34
2023-04-06T19:32:27.769Z,85237.34
2023-04-06T19:34:55.048Z,85214.09
2023-04-06T19:37:22.479Z,85244.88
2023-04-06T19:39:49.850Z,85234.63
2023-04-06T19:42:17.202Z,85207.22
2023-04-06T19:44:44.417Z,85208.59
2023-04-06T19:47:14.961Z,85238.72
2023-04-06T19:49:42.022Z,85264.75
2023-04-06T19:52:10.335Z,85255.16
2023-04-06T19:54:40.556Z,85211.34
2023-04-06T19:57:08.402Z,85251.03
2023-04-06T19:59:35.611Z,85248.28
2023-04-06T20:02:03.220Z,85253.06
2023-04-06T20:06:57.860Z,85124.47
2023-04-06T20:09:25.397Z,85168.94
2023-04-06T20:11:54.235Z,85215.44
2023-04-06T20:14:22.614Z,85242.78
2023-04-06T20:16:58.255Z,85203.13
2023-04-06T20:19:25.515Z,85163.47
2023-04-06T20:21:52.585Z,85226.38
2023-04-06T20:24:19.982Z,85242.09
2023-04-06T20:26:47.155Z,85242.09
2023-04-06T20:29:14.286Z,85241.41
2023-04-06T20:31:41.368Z,85196.94
2023-04-06T20:34:08.527Z,85227.69
2023-04-06T20:36:35.861Z,85191.44
2023-04-06T20:39:07.270Z,85199.00
2023-04-06T20:41:34.946Z,85249.63
2023-04-06T20:44:02.035Z,85216.78
2023-04-06T20:46:29.188Z,85221.56
2023-04-06T20:48:56.655Z,85252.38
2023-04-06T20:51:23.943Z,85231.16
2023-04-06T20:53:51.005Z,85248.25
2023-04-06T20:56:18.142Z,85248.25
2023-04-06T20:58:45.510Z,85230.47
2023-04-06T21:01:37.655Z,85257.13
2023-04-06T21:04:04.941Z,85259.22
2023-04-06T21:06:32.530Z,85256.44
2023-04-06T21:09:00.788Z,85237.31
2023-04-06T21:11:27.824Z,85121.06
2023-04-06T21:13:55.019Z,85218.16
2023-04-06T21:16:22.310Z,85236.66
2023-04-06T21:18:49.458Z,85248.97
2023-04-06T21:21:16.752Z,85255.81
2023-04-06T21:23:43.942Z,85236.66
2023-04-06T21:26:13.880Z,85263.34
2023-04-06T21:28:40.861Z,85266.06
2023-04-06T21:31:10.880Z,85266.06
2023-04-06T21:33:38.041Z,85266.06
2023-04-06T21:36:07.059Z,85268.16
2023-04-06T21:38:37.864Z,85204.50
2023-04-06T21:41:04.959Z,85177.16
2023-04-06T21:43:36.934Z,85240.13
2023-04-06T21:46:04.049Z,85261.34
2023-04-06T21:48:31.249Z,85242.84
2023-04-06T21:50:58.278Z,85249.69
2023-04-06T21:53:25.448Z,85277.09
2023-04-06T21:55:52.649Z,85279.13
2023-04-06T21:58:19.861Z,85279.81
2023-04-06T22:00:47.009Z,85253.78
2023-04-06T22:03:17.818Z,85267.50
2023-04-06T22:05:45.155Z,85260.66
2023-04-06T22:08:17.831Z,85245.59
2023-04-06T22:10:52.817Z,85251.06
2023-04-06T22:13:19.918Z,85254.50
2023-04-06T22:15:47.171Z,85279.13
2023-04-06T22:18:14.301Z,85246.28
2023-04-06T22:20:41.369Z,85280.50
2023-04-06T22:23:08.503Z,85283.94
2023-04-06T22:25:35.772Z,85276.38
2023-04-06T22:28:02.829Z,85267.50
2023-04-06T22:30:30.130Z,85287.34
2023-04-06T22:32:57.403Z,85249.72
2023-04-06T22:35:24.623Z,85253.81
2023-04-06T22:37:51.769Z,85270.22
2023-04-06T22:40:18.754Z,85219.59
2023-04-06T22:42:46.285Z,85241.50
2023-04-06T22:45:13.442Z,85290.81
2023-04-06T22:47:41.834Z,85288.06
2023-04-06T22:50:09.874Z,85249.03
2023-04-06T22:52:37.182Z,85288.03
2023-04-06T22:55:04.436Z,85264.78
2023-04-06T22:57:31.672Z,85296.97
2023-04-06T22:59:59.039Z,85297.66
2023-04-06T23:02:26.376Z,85299.03
2023-04-06T23:04:53.488Z,85264.78
2023-04-06T23:07:20.776Z,85290.81
2023-04-06T23:09:51.180Z,85290.13
2023-04-06T23:12:18.312Z,85253.84
2023-04-06T23:14:45.257Z,85296.28
2023-04-06T23:17:12.348Z,85275.06
2023-04-06T23:19:39.342Z,85282.59
2023-04-06T23:22:06.888Z,85283.97
2023-04-06T23:24:33.987Z,85277.09
2023-04-06T23:27:01.298Z,85255.88
2023-04-06T23:29:28.284Z,85281.22
2023-04-06T23:31:58.743Z,85276.41
2023-04-06T23:34:25.904Z,85277.13
2023-04-06T23:36:53.145Z,85273.66
2023-04-06T23:39:20.207Z,85227.81
2023-04-06T23:41:47.264Z,85247.00
2023-04-06T23:44:14.325Z,85216.19
2023-04-06T23:46:41.514Z,85240.13
2023-04-06T23:49:08.512Z,85277.78
2023-04-06T23:51:35.803Z,85282.59
2023-04-06T23:54:02.924Z,85279.16
2023-04-06T23:56:32.069Z,85270.25
2023-04-06T23:58:59.143Z,85282.56
